createdAt,value
2023-05-08T00:01:29.495Z,100696.50
2023-05-08T00:04:32.423Z,100710.12
2023-05-08T00:07:36.161Z,100703.09
2023-05-08T00:10:39.129Z,100704.72
2023-05-08T00:13:41.610Z,100706.97
2023-05-08T00:16:44.866Z,100703.41
2023-05-08T00:19:47.310Z,100702.63
2023-05-08T00:22:50.296Z,100695.03
2023-05-08T00:25:52.925Z,100699.62
2023-05-08T00:28:56.241Z,100700.66
2023-05-08T00:31:58.647Z,100708.56
2023-05-08T00:35:01.628Z,100709.25
2023-05-08T00:38:04.056Z,100715.25
2023-05-08T00:41:07.863Z,100708.22
2023-05-08T00:44:10.414Z,100710.44
2023-05-08T00:47:13.406Z,100708.63
2023-05-08T00:50:16.001Z,100710.53
2023-05-08T00:53:20.201Z,100710.91
2023-05-08T00:56:23.616Z,100712.72
2023-05-08T00:59:26.995Z,100705.84
2023-05-08T01:02:31.646Z,100705.94
2023-05-08T01:05:35.301Z,100713.59
2023-05-08T01:08:37.763Z,100716.75
2023-05-08T01:11:56.506Z,100716.69
2023-05-08T01:15:17.612Z,100720.72
2023-05-08T01:18:30.626Z,100723.34
2023-05-08T01:22:00.694Z,100729.78
2023-05-08T01:25:12.637Z,100729.78
2023-05-08T01:28:33.744Z,100741.25
2023-05-08T01:31:39.734Z,100740.91
2023-05-08T01:34:48.410Z,100750.34
2023-05-08T01:37:59.132Z,100746.56
2023-05-08T01:41:04.866Z,100744.69
2023-05-08T01:44:13.949Z,100751.81
2023-05-08T01:47:18.985Z,100749.94
2023-05-08T01:50:24.021Z,100748.13
2023-05-08T01:53:29.876Z,100747.41
2023-05-08T01:56:33.024Z,100754.66
2023-05-08T01:59:37.125Z,100753.00
2023-05-08T02:02:40.945Z,100753.59
2023-05-08T02:05:44.533Z,100756.31
2023-05-08T02:08:49.646Z,100753.72
2023-05-08T02:11:54.989Z,100763.50
2023-05-08T02:14:59.071Z,100762.66
2023-05-08T02:18:02.361Z,100762.56
2023-05-08T02:21:06.374Z,100760.62
2023-05-08T02:24:09.305Z,100760.41
2023-05-08T02:27:12.393Z,100767.62
2023-05-08T02:30:15.923Z,100766.22
2023-05-08T02:33:19.319Z,100769.59
2023-05-08T02:36:22.999Z,100763.66
2023-05-08T02:39:26.514Z,100764.47
2023-05-08T02:42:29.218Z,100766.91
2023-05-08T02:45:36.991Z,100761.38
2023-05-08T02:48:43.048Z,100767.25
2023-05-08T02:52:00.148Z,100763.06
2023-05-08T02:55:04.824Z,100772.53
2023-05-08T02:58:20.354Z,100778.72
2023-05-08T03:01:31.799Z,100775.28
2023-05-08T03:04:37.833Z,100775.87
2023-05-08T03:07:41.519Z,100781.84
2023-05-08T03:10:46.754Z,100784.12
2023-05-08T03:13:50.438Z,100783.19
2023-05-08T03:16:55.269Z,100783.91
2023-05-08T03:20:00.707Z,100789.84
2023-05-08T03:23:04.796Z,100776.78
2023-05-08T03:26:07.868Z,100776.78
2023-05-08T03:29:13.297Z,100774.28
2023-05-08T03:32:17.228Z,100775.66
2023-05-08T03:35:20.600Z,100780.06
2023-05-08T03:38:23.569Z,100786.97
2023-05-08T03:41:26.883Z,100786.13
2023-05-08T03:44:29.925Z,100781.19
2023-05-08T03:47:35.765Z,100792.59
2023-05-08T03:50:38.987Z,100792.47
2023-05-08T03:53:43.013Z,100794.22
2023-05-08T03:56:46.090Z,100780.25
2023-05-08T04:00:15.580Z,100784.62
2023-05-08T04:03:23.010Z,100798.31
2023-05-08T04:06:48.806Z,100790.34
2023-05-08T04:10:25.746Z,100799.94
2023-05-08T04:13:31.574Z,100804.56
2023-05-08T04:16:39.461Z,100806.28
2023-05-08T04:19:45.436Z,100805.44
2023-05-08T04:22:50.323Z,100811.28
2023-05-08T04:25:53.668Z,100809.44
2023-05-08T04:28:57.184Z,100821.06
2023-05-08T04:32:01.062Z,100832.38
2023-05-08T04:35:04.141Z,100829.28
2023-05-08T04:38:07.285Z,100832.50
2023-05-08T04:41:10.930Z,100838.00
2023-05-08T04:44:14.316Z,100835.69
2023-05-08T04:47:17.221Z,100844.28
2023-05-08T04:50:20.416Z,100850.69
2023-05-08T04:53:23.182Z,100855.88
2023-05-08T04:56:26.837Z,100859.31
2023-05-08T04:59:30.066Z,100864.09
2023-05-08T05:02:32.965Z,100864.03
2023-05-08T05:05:38.283Z,100875.06
2023-05-08T05:08:41.707Z,100865.59
2023-05-08T05:11:44.532Z,100871.75
2023-05-08T05:14:47.230Z,100869.34
2023-05-08T05:17:49.951Z,100871.37
2023-05-08T05:20:52.593Z,100869.16
2023-05-08T05:23:55.744Z,100876.63
2023-05-08T05:26:58.587Z,100872.94
2023-05-08T05:30:01.447Z,100877.50
2023-05-08T05:33:05.691Z,100885.28
2023-05-08T05:36:09.418Z,100882.13
2023-05-08T05:39:12.328Z,100884.22
2023-05-08T05:42:15.174Z,100889.78
2023-05-08T05:45:18.734Z,100889.31
2023-05-08T05:48:22.160Z,100895.06
2023-05-08T05:51:25.439Z,100892.09
2023-05-08T05:54:28.115Z,100898.22
2023-05-08T05:57:31.352Z,100900.97
2023-05-08T06:00:34.373Z,100906.59
2023-05-08T06:03:37.829Z,100902.91
2023-05-08T06:06:40.209Z,100899.91
2023-05-08T06:09:44.097Z,100903.94
2023-05-08T06:12:46.601Z,100903.81
2023-05-08T06:15:50.666Z,100897.00
2023-05-08T06:18:53.860Z,100897.28
2023-05-08T06:21:56.830Z,100898.37
2023-05-08T06:24:59.914Z,100901.59
2023-05-08T06:28:04.181Z,100902.53
2023-05-08T06:31:06.669Z,100901.25
2023-05-08T06:34:09.839Z,100903.16
2023-05-08T06:37:12.142Z,100905.25
2023-05-08T06:40:15.467Z,100916.44
2023-05-08T06:43:17.743Z,100908.47
2023-05-08T06:46:21.700Z,100911.75
2023-05-08T06:49:24.148Z,100914.31
2023-05-08T06:52:27.028Z,100923.09
2023-05-08T06:55:29.423Z,100918.13
2023-05-08T06:58:32.477Z,100923.12
2023-05-08T07:01:35.053Z,100919.16
2023-05-08T07:04:38.101Z,100920.56
2023-05-08T07:07:42.718Z,100918.91
2023-05-08T07:10:45.736Z,100916.41
2023-05-08T07:13:48.377Z,100924.47
2023-05-08T07:16:51.265Z,100922.75
2023-05-08T07:19:53.573Z,100913.56
2023-05-08T07:22:56.409Z,100919.31
2023-05-08T07:25:59.389Z,100916.81
2023-05-08T07:29:02.626Z,100915.53
2023-05-08T07:32:07.377Z,100913.47
2023-05-08T07:35:12.292Z,100912.28
2023-05-08T07:38:15.139Z,100914.53
2023-05-08T07:41:18.195Z,100914.84
2023-05-08T07:44:20.545Z,100915.69
2023-05-08T07:47:23.693Z,100917.91
2023-05-08T07:50:26.659Z,100919.09
2023-05-08T07:53:29.914Z,100925.66
2023-05-08T07:56:32.591Z,100923.44
2023-05-08T07:59:35.534Z,100918.50
2023-05-08T08:02:38.479Z,100915.34
2023-05-08T08:05:42.106Z,100916.50
2023-05-08T08:08:44.415Z,100905.25
2023-05-08T08:11:47.352Z,100905.44
2023-05-08T08:14:49.664Z,100909.16
2023-05-08T08:17:52.577Z,100911.97
2023-05-08T08:20:54.890Z,100907.63
2023-05-08T08:23:58.985Z,100904.97
2023-05-08T08:27:01.545Z,100906.75
2023-05-08T08:30:15.866Z,100906.75
2023-05-08T08:33:19.686Z,100905.84
2023-05-08T08:36:22.643Z,100898.69
2023-05-08T08:39:24.977Z,100900.25
2023-05-08T08:42:27.895Z,100906.94
2023-05-08T08:45:31.177Z,100903.78
2023-05-08T08:48:34.379Z,100894.37
2023-05-08T08:51:42.988Z,100884.50
2023-05-08T08:54:46.932Z,100891.00
2023-05-08T08:57:55.507Z,100891.25
2023-05-08T09:01:00.253Z,100894.81
2023-05-08T09:04:02.993Z,100885.31
2023-05-08T09:07:08.648Z,100884.25
2023-05-08T09:10:15.523Z,100876.34
2023-05-08T09:13:19.820Z,100876.28
2023-05-08T09:16:23.594Z,100880.00
2023-05-08T09:19:28.921Z,100879.81
2023-05-08T09:22:31.622Z,100882.13
2023-05-08T09:25:44.545Z,100873.44
2023-05-08T09:28:46.855Z,100876.31
2023-05-08T09:31:51.363Z,100866.66
2023-05-08T09:34:56.039Z,100862.03
2023-05-08T09:37:58.964Z,100866.50
2023-05-08T09:41:08.770Z,100875.94
2023-05-08T09:44:11.690Z,100860.28
2023-05-08T09:47:15.535Z,100869.78
2023-05-08T09:50:18.729Z,100873.69
2023-05-08T09:53:30.778Z,100868.81
2023-05-08T09:56:38.992Z,100865.66
2023-05-08T09:59:41.499Z,100858.34
2023-05-08T10:03:03.556Z,100853.81
2023-05-08T10:06:13.122Z,100854.25
2023-05-08T10:09:16.085Z,100855.91
2023-05-08T10:12:18.799Z,100856.06
2023-05-08T10:15:29.040Z,100849.88
2023-05-08T10:18:34.844Z,100850.87
2023-05-08T10:21:38.200Z,100844.69
2023-05-08T10:24:41.591Z,100837.00
2023-05-08T10:27:55.422Z,100830.84
2023-05-08T10:31:00.375Z,100846.09
2023-05-08T10:34:03.974Z,100826.75
2023-05-08T10:37:09.534Z,100818.06
2023-05-08T10:40:16.000Z,100822.47
2023-05-08T10:43:19.492Z,100822.56
2023-05-08T10:46:31.428Z,100821.28
2023-05-08T10:49:52.906Z,100819.22
2023-05-08T10:53:11.239Z,100814.84
2023-05-08T10:56:13.926Z,100813.81
2023-05-08T10:59:21.277Z,100812.19
2023-05-08T11:02:31.800Z,100809.63
2023-05-08T11:05:45.254Z,100802.28
2023-05-08T11:08:49.497Z,100798.59
2023-05-08T11:12:01.924Z,100798.88
2023-05-08T11:15:09.747Z,100796.50
2023-05-08T11:18:16.330Z,100787.47
2023-05-08T11:21:23.299Z,100786.66
2023-05-08T11:24:34.152Z,100793.63
2023-05-08T11:27:39.256Z,100792.25
2023-05-08T11:30:44.113Z,100797.22
2023-05-08T11:33:48.499Z,100788.22
2023-05-08T11:37:03.540Z,100791.84
2023-05-08T11:40:25.022Z,100791.66
2023-05-08T11:43:33.784Z,100790.19
2023-05-08T11:46:43.009Z,100790.34
2023-05-08T11:49:45.689Z,100785.31
2023-05-08T11:52:51.420Z,100789.59
2023-05-08T11:55:54.054Z,100779.56
2023-05-08T11:59:03.707Z,100783.13
2023-05-08T12:02:09.533Z,100773.34
2023-05-08T12:05:12.755Z,100785.00
2023-05-08T12:08:16.750Z,100784.03
2023-05-08T12:11:24.345Z,100795.38
2023-05-08T12:14:28.210Z,100793.13
2023-05-08T12:17:31.682Z,100778.31
2023-05-08T12:20:34.358Z,100789.63
2023-05-08T12:23:38.357Z,100787.19
2023-05-08T12:26:41.030Z,100785.69
2023-05-08T12:29:46.742Z,100790.84
2023-05-08T12:32:49.678Z,100786.22
2023-05-08T12:35:52.599Z,100776.66
2023-05-08T12:39:08.600Z,100778.66
2023-05-08T12:42:11.121Z,100773.28
2023-05-08T12:45:28.228Z,100775.84
2023-05-08T12:48:31.707Z,100772.28
2023-05-08T12:51:34.459Z,100778.88
2023-05-08T12:54:38.504Z,100780.56
2023-05-08T12:57:41.209Z,100782.94
2023-05-08T13:00:53.423Z,100784.09
2023-05-08T13:04:02.173Z,100788.94
2023-05-08T13:07:05.087Z,100781.69
2023-05-08T13:10:07.881Z,100781.66
2023-05-08T13:13:10.643Z,100789.84
2023-05-08T13:16:13.438Z,100785.91
2023-05-08T13:19:16.138Z,100777.28
2023-05-08T13:22:19.365Z,100792.53
2023-05-08T13:25:21.938Z,100787.53
2023-05-08T13:28:25.165Z,100788.88
2023-05-08T13:31:27.887Z,100791.81
2023-05-08T13:34:30.632Z,100788.53
2023-05-08T13:37:33.228Z,100790.47
2023-05-08T13:40:35.940Z,100789.75
2023-05-08T13:43:38.596Z,100786.25
2023-05-08T13:46:41.217Z,100782.00
2023-05-08T13:49:44.917Z,100793.88
2023-05-08T13:52:47.576Z,100790.28
2023-05-08T13:55:50.216Z,100788.63
2023-05-08T13:58:52.812Z,100789.63
2023-05-08T14:01:55.567Z,100794.13
2023-05-08T14:04:58.582Z,100785.44
2023-05-08T14:08:00.901Z,100792.69
2023-05-08T14:11:03.789Z,100787.38
2023-05-08T14:14:06.112Z,100790.09
2023-05-08T14:17:09.139Z,100791.88
2023-05-08T14:20:12.192Z,100789.28
2023-05-08T14:23:15.427Z,100784.97
2023-05-08T14:26:17.967Z,100786.81
2023-05-08T14:29:20.992Z,100797.62
2023-05-08T14:32:23.443Z,100794.16
2023-05-08T14:35:26.354Z,100786.25
2023-05-08T14:38:28.673Z,100791.59
2023-05-08T14:41:31.913Z,100786.28
2023-05-08T14:44:34.546Z,100800.50
2023-05-08T14:47:38.988Z,100802.28
2023-05-08T14:50:41.723Z,100790.78
2023-05-08T14:53:49.688Z,100800.53
2023-05-08T14:56:52.067Z,100797.00
2023-05-08T14:59:56.221Z,100786.37
2023-05-08T15:02:58.675Z,100789.94
2023-05-08T15:06:02.143Z,100798.75
2023-05-08T15:09:04.422Z,100790.78
2023-05-08T15:12:07.362Z,100800.50
2023-05-08T15:15:09.910Z,100792.56
2023-05-08T15:18:12.725Z,100805.81
2023-05-08T15:21:15.058Z,100795.16
2023-05-08T15:24:17.895Z,100802.25
2023-05-08T15:27:20.225Z,100796.06
2023-05-08T15:30:23.318Z,100794.25
2023-05-08T15:33:25.800Z,100789.81
2023-05-08T15:36:29.936Z,100799.47
2023-05-08T15:39:35.407Z,100794.19
2023-05-08T15:42:38.434Z,100802.09
2023-05-08T15:45:40.920Z,100791.41
2023-05-08T15:48:43.955Z,100794.13
2023-05-08T15:51:46.276Z,100796.69
2023-05-08T15:54:49.791Z,100801.84
2023-05-08T15:57:52.146Z,100795.72
2023-05-08T16:00:55.061Z,100797.41
2023-05-08T16:03:57.689Z,100795.63
2023-05-08T16:07:00.939Z,100794.69
2023-05-08T16:10:05.360Z,100793.78
2023-05-08T16:13:09.585Z,100799.97
2023-05-08T16:16:12.247Z,100806.09
2023-05-08T16:19:15.894Z,100806.03
2023-05-08T16:22:18.562Z,100813.16
2023-05-08T16:25:21.322Z,100810.37
2023-05-08T16:28:23.894Z,100819.06
2023-05-08T16:31:26.490Z,100814.59
2023-05-08T16:34:29.226Z,100822.50
2023-05-08T16:37:31.797Z,100826.00
2023-05-08T16:40:34.368Z,100825.06
2023-05-08T16:43:37.024Z,100838.16
2023-05-08T16:46:40.023Z,100833.69
2023-05-08T16:49:42.692Z,100838.84
2023-05-08T16:52:45.442Z,100845.81
2023-05-08T16:55:48.429Z,100849.22
2023-05-08T16:58:51.070Z,100856.22
2023-05-08T17:01:53.777Z,100862.25
2023-05-08T17:04:56.359Z,100863.06
2023-05-08T17:07:59.113Z,100865.62
2023-05-08T17:11:01.638Z,100877.69
2023-05-08T17:14:04.238Z,100884.81
2023-05-08T17:17:07.013Z,100889.91
2023-05-08T17:20:10.321Z,100890.56
2023-05-08T17:23:13.096Z,100890.28
2023-05-08T17:26:15.736Z,100906.91
2023-05-08T17:29:18.349Z,100904.06
2023-05-08T17:32:21.551Z,100915.37
2023-05-08T17:35:24.207Z,100938.09
2023-05-08T17:38:26.818Z,100934.50
2023-05-08T17:41:29.431Z,100937.75
2023-05-08T17:44:32.031Z,100946.41
2023-05-08T17:47:34.709Z,100957.75
2023-05-08T17:50:39.561Z,100959.97
2023-05-08T17:53:42.785Z,100970.09
2023-05-08T17:56:45.769Z,100978.56
2023-05-08T17:59:48.386Z,100978.38
2023-05-08T18:02:51.376Z,100985.19
2023-05-08T18:05:56.233Z,100990.34
2023-05-08T18:08:58.877Z,101001.47
2023-05-08T18:12:02.671Z,100996.06
2023-05-08T18:15:06.700Z,100997.59
2023-05-08T18:18:09.441Z,101018.53
2023-05-08T18:21:12.273Z,101018.38
2023-05-08T18:24:14.866Z,101023.75
2023-05-08T18:27:17.492Z,101029.31
2023-05-08T18:30:20.232Z,101033.37
2023-05-08T18:33:22.865Z,101050.72
2023-05-08T18:36:25.557Z,101052.34
2023-05-08T18:39:28.198Z,101055.66
2023-05-08T18:42:30.870Z,101059.09
2023-05-08T18:45:33.489Z,101059.00
2023-05-08T18:48:36.332Z,101072.13
2023-05-08T18:51:39.018Z,101079.06
2023-05-08T18:54:42.489Z,101080.78
2023-05-08T18:57:45.122Z,101097.91
2023-05-08T19:00:48.052Z,101101.13
2023-05-08T19:03:50.945Z,101100.09
2023-05-08T19:06:53.819Z,101093.81
2023-05-08T19:09:56.966Z,101100.63
2023-05-08T19:13:02.253Z,101107.41
2023-05-08T19:16:05.259Z,101102.69
2023-05-08T19:19:08.135Z,101109.53
2023-05-08T19:22:11.994Z,101102.13
2023-05-08T19:25:14.940Z,101107.09
2023-05-08T19:28:18.025Z,101115.56
2023-05-08T19:31:20.754Z,101116.38
2023-05-08T19:34:24.019Z,101108.22
2023-05-08T19:37:26.795Z,101113.53
2023-05-08T19:40:29.459Z,101116.00
2023-05-08T19:43:32.128Z,101116.16
2023-05-08T19:46:35.790Z,101111.44
2023-05-08T19:49:38.928Z,101117.81
2023-05-08T19:52:43.363Z,101114.75
2023-05-08T19:55:46.392Z,101123.12
2023-05-08T19:58:48.998Z,101119.50
2023-05-08T20:01:52.097Z,101115.31
2023-05-08T20:05:18.606Z,101113.81
2023-05-08T20:08:17.536Z,101128.31
2023-05-08T20:11:20.860Z,101131.53
2023-05-08T20:14:23.211Z,101137.00
2023-05-08T20:17:26.138Z,101137.75
2023-05-08T20:20:29.806Z,101132.56
2023-05-08T20:23:33.031Z,101137.69
2023-05-08T20:26:35.477Z,101135.37
2023-05-08T20:29:38.465Z,101135.56
2023-05-08T20:32:40.934Z,101128.28
2023-05-08T20:35:44.091Z,101138.94
2023-05-08T20:38:46.578Z,101139.72
2023-05-08T20:41:49.523Z,101136.44
2023-05-08T20:44:51.876Z,101134.28
2023-05-08T20:47:54.883Z,101130.78
2023-05-08T20:50:57.439Z,101132.19
2023-05-08T20:54:00.627Z,101131.72
2023-05-08T20:57:03.021Z,101135.81
2023-05-08T21:00:06.520Z,101132.22
2023-05-08T21:03:09.002Z,101125.84
2023-05-08T21:06:12.306Z,101125.28
2023-05-08T21:09:14.918Z,101135.97
2023-05-08T21:12:17.836Z,101128.72
2023-05-08T21:15:20.422Z,101132.13
2023-05-08T21:18:23.398Z,101132.47
2023-05-08T21:21:25.796Z,101131.25
2023-05-08T21:24:28.821Z,101127.66
2023-05-08T21:27:31.361Z,101130.16
2023-05-08T21:30:34.481Z,101120.38
2023-05-08T21:33:36.833Z,101128.63
2023-05-08T21:36:39.703Z,101119.56
2023-05-08T21:39:42.080Z,101125.34
2023-05-08T21:42:45.082Z,101132.31
2023-05-08T21:45:47.378Z,101126.53
2023-05-08T21:48:50.341Z,101127.12
2023-05-08T21:51:53.061Z,101124.59
2023-05-08T21:54:56.045Z,101119.22
2023-05-08T21:57:58.336Z,101126.13
2023-05-08T22:01:01.557Z,101120.66
2023-05-08T22:04:04.175Z,101109.19
2023-05-08T22:07:06.785Z,101111.94
2023-05-08T22:10:10.456Z,101110.94
2023-05-08T22:13:13.242Z,101109.41
2023-05-08T22:16:15.994Z,101113.75
2023-05-08T22:19:18.636Z,101114.19
2023-05-08T22:22:21.263Z,101111.31
2023-05-08T22:25:25.350Z,101107.59
2023-05-08T22:28:28.097Z,101111.31
2023-05-08T22:31:30.893Z,101110.59
2023-05-08T22:34:33.590Z,101101.47
2023-05-08T22:37:36.942Z,101103.72
2023-05-08T22:40:39.680Z,101089.34
2023-05-08T22:43:42.316Z,101097.00
2023-05-08T22:46:45.105Z,101105.94
2023-05-08T22:49:48.783Z,101104.50
2023-05-08T22:52:51.378Z,101105.06
2023-05-08T22:55:53.967Z,101098.19
2023-05-08T22:58:56.646Z,101093.88
2023-05-08T23:01:59.207Z,101108.69
2023-05-08T23:05:02.380Z,101098.19
2023-05-08T23:08:05.437Z,101102.66
2023-05-08T23:11:08.002Z,101099.91
2023-05-08T23:14:10.532Z,101107.03
2023-05-08T23:17:14.099Z,101104.28
2023-05-08T23:20:17.128Z,101104.16
2023-05-08T23:23:19.736Z,101106.62
2023-05-08T23:26:22.396Z,101104.69
2023-05-08T23:29:25.165Z,101102.00
2023-05-08T23:32:27.775Z,101105.50
2023-05-08T23:35:30.366Z,101103.78
2023-05-08T23:38:32.944Z,101092.44
2023-05-08T23:41:35.917Z,101091.47
2023-05-08T23:44:38.485Z,101086.94
2023-05-08T23:47:41.511Z,101090.69
2023-05-08T23:50:44.293Z,101087.44
2023-05-08T23:53:46.951Z,101089.91
2023-05-08T23:56:49.558Z,101085.84
2023-05-08T23:59:52.352Z,101082.06
